Galdar, Spain
Current Conditions -  °F | °C
As of 11:30 AM on Sunday 26 Oct 2014 (Local Time) from GCLP Reporting Station
Few Clouds Few Clouds  
Wind Chill: 81°   Ceiling: Unl
Heat Index: 81°   Visibility: 6mi
Dew Point: 59°   Wind: 2mph
Humidity: 48%   Direction: NA
Pressure: 30.03"   Gusts: NA
Location:  28.14°N, 15.65°W
Report Text: GCLP 260930Z VRB02KT 9999 FEW030 27/15 Q1017 NOSIG
Loading
Personal Weather Stations






























Interactive Weather Map
Tropical Storm Tracking
New forecast layout! Learn more

10-Day Weather Forecast

Advertisements
Track Severe Weather on mobile